Boncarbo, Colorado
Current Conditions -  °F | °C
As of 2:54 AM on Thursday 23 Oct 2014 (Local Time) from KTAD Reporting Station
Clear Clear  
Wind Chill: 42°   Ceiling: Unl
Heat Index: 47°   Visibility: 10mi
Dew Point: 37°   Wind: 12mph
Humidity: 68%   Direction: 240°WSW
Pressure: 30.17"   Gusts: NA
Location:  37.22°N, 104.7°W
Report Text: KTAD 230854Z AUTO 24010KT 10SM CLR 08/03 A3017 RMK AO2 SLP161 T00830028 51003
Loading
Personal Weather Stations






























Interactive Weather Map
Tropical Storm Tracking
New forecast layout! Learn more

10-Day Weather Forecast

Advertisements
Track Severe Weather on mobile